Portada
METAR-TAF:

METAR-TAF

Aeroports :

Plataforma petroliera

D15-fa-1, Països Baixos

latitud: 54-19-32N, longitud: 2-56-09E, altitud: 36 m

Observació

L'informe es va fer fa 30 minuts, a les 09:25 UTC
Vent 37 kt del Sud-Oest, variant entre Sud i Oest
Temperatura 9°C
Humitat 93%
Pressió 985 hPa
Visibilitat 10 km o més

METAR: EHDV 200925Z AUTO 22037KT 170V270 9999 BKN014/// BKN039/// OVC047/// 09/08 Q0985

Hora: 10:55 (09:55 UTC)


TAF: manca

Observacions i pronòstics meteorològics de més de 4000 aeroports (METAR i TAF).

Les estacions disponibles són els punts grocs i vermells al mapa.

Posi el ratolí al punt desitjat per veure el nom de l'estació.

Feu clic per veure les observacions i els pronòstics meteorològics.

Per canviar el mapa: feu clic els botons verds amb una creu de color negre per apropar; al botó verd amb un guió per allunyar la imatge; o en les fletxes verdes per a mapes adjacents.


METAR-TAF: